Time;durP1;ratioP1;P1;durP2;ratioP2;P2;SDS_P1;SDS_P2;PMS_P1;PMS_P2;Temp;Humidity;BMP_temperature;BMP_pressure;BME280_temperature;BME280_humidity;BME280_pressure;Samples;Min_cycle;Max_cycle;Signal;HPM_P1;HPM_P2
2024/03/30 00:00:40;;;;;;;15.50;14.10;;;;;;;7.29;100.00;100187.34;87001;275;138244;-73
2024/03/30 00:02:41;;;;;;;15.40;13.80;;;;;;;7.24;100.00;100184.67;87200;272;24170;-69
2024/03/30 00:04:41;;;;;;;15.50;13.90;;;;;;;7.21;100.00;100183.18;87011;271;137673;-68
2024/03/30 00:06:42;;;;;;;14.70;13.20;;;;;;;7.19;100.00;100184.08;87112;280;25383;-70
2024/03/30 00:08:43;;;;;;;13.80;12.50;;;;;;;7.15;100.00;100187.41;87076;273;137840;-71
2024/03/30 00:10:43;;;;;;;14.70;13.20;;;;;;;7.10;100.00;100184.09;87197;280;22574;-70
2024/03/30 00:12:48;;;;;;;17.20;15.20;;;;;;;7.03;100.00;100182.90;86984;281;136952;-69
2024/03/30 00:14:50;;;;;;;17.70;15.90;;;;;;;6.98;100.00;100179.44;87249;270;24196;-71
2024/03/30 00:16:50;;;;;;;17.10;15.00;;;;;;;6.94;100.00;100187.02;87004;272;136750;-70
2024/03/30 00:18:53;;;;;;;18.60;16.80;;;;;;;6.93;100.00;100192.42;87161;273;22583;-71
2024/03/30 00:20:53;;;;;;;18.50;16.70;;;;;;;6.93;100.00;100192.70;87088;268;138177;-71
2024/03/30 00:22:54;;;;;;;19.00;17.10;;;;;;;6.93;100.00;100192.52;87077;273;23795;-72
2024/03/30 00:24:55;;;;;;;18.40;16.70;;;;;;;6.94;100.00;100194.20;87042;276;137820;-71
2024/03/30 00:26:55;;;;;;;23.30;19.50;;;;;;;6.95;100.00;100190.52;86955;273;25213;-72
2024/03/30 00:28:56;;;;;;;20.30;18.40;;;;;;;6.95;100.00;100196.00;87098;273;136975;-73
2024/03/30 00:30:57;;;;;;;23.20;20.90;;;;;;;6.95;100.00;100196.36;87034;275;25085;-73
2024/03/30 00:32:58;;;;;;;20.70;18.60;;;;;;;6.95;100.00;100200.70;86938;270;136725;-76
2024/03/30 00:34:58;;;;;;;19.90;17.90;;;;;;;6.94;100.00;100205.21;87300;266;22762;-70
2024/03/30 00:36:59;;;;;;;22.10;19.80;;;;;;;6.93;100.00;100214.03;87113;272;137969;-70
2024/03/30 00:39:00;;;;;;;22.80;20.40;;;;;;;6.89;100.00;100215.31;87292;270;23729;-69
2024/03/30 00:41:01;;;;;;;21.10;18.90;;;;;;;6.84;100.00;100207.20;87093;276;136062;-71
2024/03/30 00:43:03;;;;;;;21.50;19.40;;;;;;;6.81;100.00;100211.63;87272;272;25114;-69
2024/03/30 00:45:06;;;;;;;22.80;20.30;;;;;;;6.78;100.00;100214.53;87167;279;137308;-73
2024/03/30 00:47:07;;;;;;;20.70;18.60;;;;;;;6.77;100.00;100218.61;87360;272;24580;-72
2024/03/30 00:49:07;;;;;;;20.10;18.00;;;;;;;6.75;100.00;100220.52;87077;270;137114;-72
2024/03/30 00:51:08;;;;;;;21.30;18.70;;;;;;;6.74;100.00;100224.92;87134;273;23747;-73
2024/03/30 00:53:09;;;;;;;21.60;19.40;;;;;;;6.72;100.00;100218.58;86743;274;136809;-74
2024/03/30 00:55:09;;;;;;;22.80;19.80;;;;;;;6.71;100.00;100212.73;87119;273;22637;-72
2024/03/30 00:57:12;;;;;;;22.40;19.40;;;;;;;6.70;100.00;100211.95;87023;272;137365;-71
2024/03/30 00:59:12;;;;;;;21.50;19.10;;;;;;;6.70;100.00;100206.98;87200;271;24004;-70
2024/03/30 01:01:16;;;;;;;23.40;19.70;;;;;;;6.69;100.00;100200.97;87021;273;137120;-68
2024/03/30 01:03:17;;;;;;;23.80;21.30;;;;;;;6.70;100.00;100201.73;87178;268;22563;-71
2024/03/30 01:05:18;;;;;;;26.10;21.80;;;;;;;6.72;100.00;100202.52;87007;269;137429;-72
2024/03/30 01:07:19;;;;;;;25.10;22.70;;;;;;;6.75;100.00;100202.95;87104;280;25324;-71
2024/03/30 01:09:20;;;;;;;23.90;21.50;;;;;;;6.76;100.00;100207.91;87045;278;137109;-70
2024/03/30 01:11:21;;;;;;;26.40;22.70;;;;;;;6.77;100.00;100210.06;87228;272;23928;-70
2024/03/30 01:13:22;;;;;;;25.20;22.60;;;;;;;6.78;100.00;100214.27;87036;268;137247;-70
2024/03/30 01:15:23;;;;;;;24.50;21.40;;;;;;;6.77;100.00;100216.75;87198;280;23980;-72
2024/03/30 01:17:24;;;;;;;24.40;22.00;;;;;;;6.77;100.00;100217.84;87065;273;137197;-73
2024/03/30 01:19:25;;;;;;;24.60;21.80;;;;;;;6.78;100.00;100222.55;87457;270;22563;-71
2024/03/30 01:21:26;;;;;;;25.00;22.10;;;;;;;6.78;100.00;100219.20;87050;272;138387;-71
2024/03/30 01:23:27;;;;;;;24.50;22.00;;;;;;;6.77;100.00;100223.67;87170;269;23955;-71
2024/03/30 01:25:29;;;;;;;25.80;23.10;;;;;;;6.76;100.00;100222.55;87031;271;137440;-71
2024/03/30 01:27:30;;;;;;;24.70;21.90;;;;;;;6.74;100.00;100221.59;87156;273;22583;-71
2024/03/30 01:29:31;;;;;;;23.20;20.90;;;;;;;6.72;100.00;100225.98;89197;271;138605;-70
2024/03/30 01:31:32;;;;;;;23.10;21.00;;;;;;;6.72;100.00;100225.00;87083;271;22572;-67
2024/03/30 01:33:33;;;;;;;24.00;21.60;;;;;;;6.72;100.00;100230.83;87122;280;137826;-70
2024/03/30 01:35:35;;;;;;;26.30;23.60;;;;;;;6.72;100.00;100234.84;87067;278;25085;-69
2024/03/30 01:37:35;;;;;;;24.10;21.50;;;;;;;6.72;100.00;100230.82;87082;276;138326;-71
2024/03/30 01:39:36;;;;;;;23.60;20.30;;;;;;;6.71;100.00;100235.83;87148;273;22597;-71
2024/03/30 01:41:37;;;;;;;25.80;21.80;;;;;;;6.71;100.00;100235.95;87029;279;137698;-71
2024/03/30 01:43:37;;;;;;;22.90;20.50;;;;;;;6.70;100.00;100233.81;87148;275;22787;-68
2024/03/30 01:45:43;;;;;;;22.20;19.90;;;;;;;6.69;100.00;100238.02;86971;276;138787;-71
2024/03/30 01:47:44;;;;;;;25.00;22.30;;;;;;;6.68;100.00;100235.13;87337;280;22546;-71
2024/03/30 01:49:45;;;;;;;25.00;22.40;;;;;;;6.67;100.00;100233.80;86981;274;138384;-71
2024/03/30 01:51:47;;;;;;;23.00;20.60;;;;;;;6.66;100.00;100230.96;87111;270;22565;-71
2024/03/30 01:53:48;;;;;;;22.30;19.50;;;;;;;6.65;100.00;100231.92;87013;270;137003;-70
2024/03/30 01:55:51;;;;;;;22.60;20.20;;;;;;;6.64;100.00;100231.27;87211;271;22549;-71
2024/03/30 01:57:54;;;;;;;24.30;20.30;;;;;;;6.65;100.00;100232.11;87174;273;137853;-72
2024/03/30 01:59:55;;;;;;;20.40;18.40;;;;;;;6.65;100.00;100230.70;87050;271;25111;-70
2024/03/30 02:01:57;;;;;;;24.10;21.60;;;;;;;6.66;100.00;100232.02;87041;271;137205;-71
2024/03/30 02:03:59;;;;;;;23.30;21.00;;;;;;;6.67;100.00;100232.60;87321;275;23378;-71
2024/03/30 02:06:01;;;;;;;23.70;21.30;;;;;;;6.67;100.00;100235.76;87218;267;136947;-72
2024/03/30 02:08:05;;;;;;;21.60;19.40;;;;;;;6.67;100.00;100236.13;87097;273;22571;-69
2024/03/30 02:10:07;;;;;;;21.90;19.50;;;;;;;6.67;100.00;100237.55;87141;272;25377;-72
2024/03/30 02:12:08;;;;;;;21.20;19.20;;;;;;;6.68;100.00;100236.16;87037;280;137856;-71
2024/03/30 02:14:08;;;;;;;20.80;18.80;;;;;;;6.68;100.00;100238.81;86969;272;25128;-71
2024/03/30 02:16:09;;;;;;;21.50;19.50;;;;;;;6.67;100.00;100238.27;87046;280;137482;-70
2024/03/30 02:18:10;;;;;;;20.40;18.50;;;;;;;6.65;100.00;100236.85;87059;271;23709;-70
2024/03/30 02:20:11;;;;;;;21.00;19.00;;;;;;;6.62;100.00;100235.56;87067;271;138156;-70
2024/03/30 02:22:17;;;;;;;22.20;18.60;;;;;;;6.59;100.00;100234.23;87233;271;25117;-70
2024/03/30 02:24:18;;;;;;;22.80;18.80;;;;;;;6.58;100.00;100233.31;87041;280;137312;-71
2024/03/30 02:26:19;;;;;;;21.50;19.40;;;;;;;6.58;100.00;100230.16;87205;270;22572;-72
2024/03/30 02:28:21;;;;;;;23.00;20.60;;;;;;;6.58;100.00;100231.02;87120;266;136875;-68
2024/03/30 02:30:26;;;;;;;21.80;19.10;;;;;;;6.57;100.00;100233.28;87012;271;25306;-72
2024/03/30 02:32:28;;;;;;;22.70;19.20;;;;;;;6.56;100.00;100234.23;87333;266;138619;-72
2024/03/30 02:34:29;;;;;;;21.00;18.80;;;;;;;6.54;100.00;100233.10;87174;271;25191;-72
2024/03/30 02:36:32;;;;;;;21.60;19.40;;;;;;;6.53;100.00;100236.25;87076;271;136891;-70
2024/03/30 02:38:33;;;;;;;23.20;20.90;;;;;;;6.50;100.00;100232.41;87295;272;24317;-69
2024/03/30 02:40:34;;;;;;;21.20;18.90;;;;;;;6.50;100.00;100233.83;86980;281;137277;-72
2024/03/30 02:42:35;;;;;;;21.30;19.20;;;;;;;6.50;100.00;100239.02;87109;276;22533;-71
2024/03/30 02:44:35;;;;;;;20.60;18.50;;;;;;;6.47;100.00;100241.45;87053;280;137007;-71
2024/03/30 02:46:36;;;;;;;19.20;17.40;;;;;;;6.46;100.00;100241.86;87199;271;24129;-71
2024/03/30 02:48:37;;;;;;;20.80;18.60;;;;;;;6.44;100.00;100245.97;87047;271;137182;-71
2024/03/30 02:50:38;;;;;;;23.30;20.10;;;;;;;6.40;100.00;100241.77;87165;280;22548;-71
2024/03/30 02:52:39;;;;;;;21.70;19.40;;;;;;;6.36;100.00;100243.64;87025;265;136938;-71
2024/03/30 02:54:39;;;;;;;22.00;19.70;;;;;;;6.32;100.00;100243.67;87328;270;22739;-71
2024/03/30 02:56:40;;;;;;;22.30;19.90;;;;;;;6.29;100.00;100244.23;87127;271;137078;-71
2024/03/30 02:58:41;;;;;;;21.50;19.30;;;;;;;6.24;100.00;100246.80;87051;271;26404;-68
2024/03/30 03:00:41;;;;;;;21.50;19.20;;;;;;;6.21;100.00;100251.84;87027;276;138116;-71
2024/03/30 03:02:42;;;;;;;20.50;18.40;;;;;;;6.20;100.00;100251.70;87114;280;25252;-73
2024/03/30 03:04:43;;;;;;;21.40;18.70;;;;;;;6.19;100.00;100251.77;87163;276;139158;-71
2024/03/30 03:06:44;;;;;;;19.80;17.70;;;;;;;6.18;100.00;100253.52;87660;274;24167;-72
2024/03/30 03:08:45;;;;;;;20.30;18.30;;;;;;;6.17;100.00;100254.09;87201;272;136877;-71
2024/03/30 03:10:45;;;;;;;21.50;18.10;;;;;;;6.16;100.00;100253.73;87735;271;24167;-72
2024/03/30 03:12:46;;;;;;;18.80;16.90;;;;;;;6.14;100.00;100253.75;87593;271;138244;-74
2024/03/30 03:14:47;;;;;;;19.90;17.90;;;;;;;6.11;100.00;100254.77;87455;272;22556;-71
2024/03/30 03:16:48;;;;;;;19.60;17.60;;;;;;;6.09;100.00;100251.65;87308;272;138153;-74
2024/03/30 03:18:48;;;;;;;20.80;18.70;;;;;;;6.05;100.00;100252.20;87497;275;24052;-70
2024/03/30 03:20:49;;;;;;;19.20;17.20;;;;;;;6.02;100.00;100251.48;87351;271;136502;-75
2024/03/30 03:22:50;;;;;;;17.10;15.50;;;;;;;6.01;100.00;100251.88;87349;268;26198;-73
2024/03/30 03:24:50;;;;;;;15.70;14.20;;;;;;;6.01;100.00;100253.79;87314;276;136786;-72
2024/03/30 03:26:51;;;;;;;17.00;15.30;;;;;;;6.02;100.00;100256.56;87567;266;24114;-72
2024/03/30 03:28:52;;;;;;;14.80;13.30;;;;;;;6.02;100.00;100255.08;87319;268;136874;-71
2024/03/30 03:30:53;;;;;;;16.90;15.30;;;;;;;6.05;100.00;100253.62;87237;273;24670;-71
2024/03/30 03:32:53;;;;;;;15.80;14.30;;;;;;;6.07;100.00;100255.23;87249;268;136718;-80
2024/03/30 03:34:54;;;;;;;16.70;15.10;;;;;;;6.10;100.00;100256.33;87431;271;22543;-69
2024/03/30 03:36:54;;;;;;;16.80;14.90;;;;;;;6.13;100.00;100257.69;87019;269;137391;-73
2024/03/30 03:38:55;;;;;;;17.00;15.30;;;;;;;6.17;100.00;100255.31;87239;271;22809;-70
2024/03/30 03:40:56;;;;;;;17.40;15.10;;;;;;;6.22;100.00;100252.39;87043;271;137068;-71
2024/03/30 03:42:57;;;;;;;15.40;13.90;;;;;;;6.25;100.00;100255.70;87456;280;22608;-70
2024/03/30 03:44:57;;;;;;;16.90;15.10;;;;;;;6.28;100.00;100259.02;87342;280;136874;-71
2024/03/30 03:46:58;;;;;;;14.00;12.70;;;;;;;6.29;100.00;100260.61;87537;271;22574;-70
2024/03/30 03:48:59;;;;;;;15.70;13.40;;;;;;;6.33;100.00;100260.68;87420;275;136575;-70
2024/03/30 03:51:00;;;;;;;14.10;12.70;;;;;;;6.36;100.00;100261.29;87607;266;22564;-71
2024/03/30 03:53:01;;;;;;;14.50;13.10;;;;;;;6.39;100.00;100266.77;87267;273;137086;-73
2024/03/30 03:55:02;;;;;;;16.20;13.50;;;;;;;6.43;100.00;100270.95;87519;271;22568;-69
2024/03/30 03:57:03;;;;;;;14.20;12.90;;;;;;;6.45;100.00;100270.73;87146;269;136776;-73
2024/03/30 03:59:04;;;;;;;12.90;11.70;;;;;;;6.49;100.00;100273.18;87400;271;22623;-71
2024/03/30 04:01:06;;;;;;;13.60;12.40;;;;;;;6.53;100.00;100271.27;87305;272;137224;-70
2024/03/30 04:03:06;;;;;;;13.80;12.50;;;;;;;6.59;100.00;100272.40;87206;275;24045;-75
2024/03/30 04:05:07;;;;;;;14.50;13.10;;;;;;;6.71;100.00;100267.67;87004;279;136909;-72
2024/03/30 04:07:08;;;;;;;13.90;12.70;;;;;;;6.88;100.00;100271.13;87156;280;22574;-73
2024/03/30 04:09:09;;;;;;;13.70;12.50;;;;;;;7.07;100.00;100278.73;87313;280;137707;-72
2024/03/30 04:11:09;;;;;;;12.90;11.70;;;;;;;7.21;100.00;100276.66;87541;279;22596;-72
2024/03/30 04:13:11;;;;;;;13.10;12.00;;;;;;;7.33;100.00;100272.20;87223;268;136778;-72
2024/03/30 04:15:11;;;;;;;13.40;12.20;;;;;;;7.42;100.00;100274.55;87299;280;22558;-71
2024/03/30 04:17:12;;;;;;;14.60;11.70;;;;;;;7.52;100.00;100270.81;87297;270;137183;-72
2024/03/30 04:19:17;;;;;;;14.10;12.70;;;;;;;7.69;100.00;100274.83;87252;270;22587;-76
2024/03/30 04:21:19;;;;;;;12.70;11.60;;;;;;;7.93;100.00;100279.06;87349;271;137560;-77
2024/03/30 04:23:19;;;;;;;12.20;11.10;;;;;;;8.18;100.00;100279.61;87752;271;24126;-78
2024/03/30 04:25:20;;;;;;;10.90;9.80;;;;;;;8.41;100.00;100279.42;87471;279;136593;-78
2024/03/30 04:27:21;;;;;;;10.80;9.80;;;;;;;8.76;100.00;100278.83;87418;281;23994;-80
2024/03/30 04:29:21;;;;;;;12.90;11.70;;;;;;;9.27;100.00;100273.90;87445;275;138625;-77
2024/03/30 04:31:22;;;;;;;13.50;12.30;;;;;;;9.98;100.00;100277.36;87620;275;23980;-77
2024/03/30 04:33:23;;;;;;;12.70;10.80;;;;;;;10.70;100.00;100279.98;87526;268;138041;-77
2024/03/30 04:35:24;;;;;;;11.00;9.90;;;;;;;11.12;100.00;100283.67;87522;281;22645;-75
2024/03/30 04:37:24;;;;;;;8.50;7.90;;;;;;;11.23;100.00;100281.36;87340;269;138742;-76
2024/03/30 04:39:25;;;;;;;7.90;7.30;;;;;;;11.18;100.00;100282.41;87310;272;22587;-76
2024/03/30 04:41:25;;;;;;;10.20;9.30;;;;;;;11.11;100.00;100285.89;87159;272;136994;-76
2024/03/30 04:43:27;;;;;;;7.60;7.00;;;;;;;10.96;100.00;100297.88;87357;278;25131;-77
2024/03/30 04:45:28;;;;;;;7.10;6.60;;;;;;;10.64;100.00;100294.67;87542;279;138198;-76
2024/03/30 04:47:29;;;;;;;7.40;6.80;;;;;;;10.27;100.00;100290.52;87810;279;23965;-75
2024/03/30 04:49:29;;;;;;;6.80;6.20;;;;;;;9.96;100.00;100291.04;87048;279;136784;-76
2024/03/30 04:51:30;;;;;;;7.90;7.30;;;;;;;9.76;100.00;100289.82;87051;271;24670;-77
2024/03/30 04:53:33;;;;;;;8.40;7.80;;;;;;;9.64;100.00;100292.20;87151;277;137172;-78
2024/03/30 04:55:35;;;;;;;8.40;7.40;;;;;;;9.60;100.00;100291.50;87525;271;25215;-77
2024/03/30 04:57:35;;;;;;;7.70;7.10;;;;;;;9.62;100.00;100293.91;87323;272;138977;-76
2024/03/30 04:59:36;;;;;;;9.00;7.10;;;;;;;9.73;100.00;100290.31;87545;270;24032;-77
2024/03/30 05:01:37;;;;;;;6.90;6.30;;;;;;;9.89;100.00;100289.83;87121;278;136882;-77
2024/03/30 05:03:38;;;;;;;7.30;6.60;;;;;;;10.12;100.00;100295.34;87223;264;22563;-77
2024/03/30 05:05:42;;;;;;;6.10;5.70;;;;;;;10.36;100.00;100303.17;87210;271;137060;-75
2024/03/30 05:07:42;;;;;;;8.80;5.70;;;;;;;10.51;100.00;100304.13;87225;267;25399;-77
2024/03/30 05:09:43;;;;;;;6.20;5.70;;;;;;;10.61;100.00;100306.16;87244;275;137745;-78
2024/03/30 05:11:44;;;;;;;5.00;4.60;;;;;;;10.70;100.00;100305.18;87451;270;25079;-76
2024/03/30 05:13:45;;;;;;;6.20;5.80;;;;;;;10.80;100.00;100305.64;87333;271;136934;-79
2024/03/30 05:15:46;;;;;;;6.40;5.80;;;;;;;10.89;100.00;100307.30;87945;271;22535;-76
2024/03/30 05:17:47;;;;;;;6.50;6.00;;;;;;;11.05;100.00;100305.59;87806;267;136791;-76
2024/03/30 05:22:08;;;;;;;7.30;6.70;;;;;;;11.58;100.00;100314.14;88945;266;22537;-77
2024/03/30 05:24:08;;;;;;;6.20;5.70;;;;;;;11.88;100.00;100320.27;88422;276;137114;-77
2024/03/30 05:26:09;;;;;;;5.70;5.30;;;;;;;12.21;100.00;100317.27;88846;269;25177;-76
2024/03/30 05:28:11;;;;;;;5.70;4.80;;;;;;;12.60;100.00;100321.25;88989;281;136999;-78
2024/03/30 05:30:13;;;;;;;4.90;4.50;;;;;;;12.91;100.00;100319.34;88665;268;23263;-78
2024/03/30 05:32:14;;;;;;;6.90;4.80;;;;;;;13.08;100.00;100323.85;88439;269;138197;-80
2024/03/30 05:34:15;;;;;;;4.90;4.60;;;;;;;13.12;100.00;100324.30;88675;268;24253;-79
2024/03/30 05:36:16;;;;;;;5.20;4.70;;;;;;;13.01;100.00;100326.52;88483;271;136852;-79
2024/03/30 05:38:18;;;;;;;4.40;4.00;;;;;;;12.91;100.00;100322.23;89039;269;22535;-79
2024/03/30 05:40:18;;;;;;;4.60;4.30;;;;;;;12.86;100.00;100322.55;88881;273;137259;-77
2024/03/30 05:42:19;;;;;;;4.80;4.50;;;;;;;12.64;100.00;100326.79;88391;277;22974;-83
2024/03/30 05:44:20;;;;;;;4.70;4.20;;;;;;;12.41;100.00;100323.27;88184;266;137581;-82
2024/03/30 05:46:23;;;;;;;4.60;4.20;;;;;;;12.21;100.00;100323.02;87184;274;1046106;-79
2024/03/30 05:48:24;;;;;;;5.80;4.50;;;;;;;11.97;100.00;100329.83;88129;279;137632;-83
2024/03/30 05:50:26;;;;;;;5.00;4.60;;;;;;;11.85;100.00;100330.80;87834;279;22562;-77
2024/03/30 05:52:27;;;;;;;6.00;4.80;;;;;;;11.73;100.00;100328.54;87542;272;137278;-81
2024/03/30 05:54:27;;;;;;;5.10;4.30;;;;;;;11.68;100.00;100333.08;87620;280;22516;-81
2024/03/30 05:56:28;;;;;;;4.70;4.40;;;;;;;11.69;100.00;100334.60;87674;268;137355;-78
2024/03/30 05:58:29;;;;;;;4.30;4.00;;;;;;;11.73;100.00;100330.59;87823;272;25126;-81
2024/03/30 06:00:30;;;;;;;4.60;4.30;;;;;;;11.82;100.00;100333.52;87597;271;138179;-80
2024/03/30 06:02:31;;;;;;;4.40;4.10;;;;;;;11.85;100.00;100332.65;87344;271;22559;-79
2024/03/30 06:04:32;;;;;;;4.30;3.90;;;;;;;11.88;100.00;100337.88;87271;266;137108;-81
2024/03/30 06:06:33;;;;;;;4.80;4.30;;;;;;;11.99;100.00;100336.73;87297;271;25204;-78
2024/03/30 06:08:33;;;;;;;4.50;4.20;;;;;;;12.10;100.00;100333.74;87514;271;138225;-77
2024/03/30 06:10:34;;;;;;;6.10;5.00;;;;;;;12.21;100.00;100332.73;87639;271;22682;-79
2024/03/30 06:12:36;;;;;;;5.00;4.60;;;;;;;12.38;100.00;100334.27;87465;272;137910;-77
2024/03/30 06:14:37;;;;;;;5.30;4.70;;;;;;;12.59;100.00;100332.45;87757;276;23320;-81
2024/03/30 06:16:38;;;;;;;3.50;3.30;;;;;;;12.65;100.00;100334.20;87550;268;136881;-81
2024/03/30 06:18:40;;;;;;;5.00;4.20;;;;;;;12.48;100.00;100338.71;87829;279;22493;-79
2024/03/30 06:20:41;;;;;;;3.90;3.70;;;;;;;12.26;100.00;100337.14;87450;273;138811;-80
2024/03/30 06:22:42;;;;;;;5.70;4.20;;;;;;;12.01;100.00;100337.66;87647;271;22592;-80
2024/03/30 06:24:43;;;;;;;4.10;3.80;;;;;;;11.80;100.00;100331.83;87625;272;138349;-82
2024/03/30 06:26:44;;;;;;;5.40;4.30;;;;;;;11.60;100.00;100332.16;87800;271;22654;-79
2024/03/30 06:28:45;;;;;;;4.50;4.20;;;;;;;11.43;100.00;100330.52;87706;273;137029;-79
2024/03/30 06:30:46;;;;;;;4.70;4.30;;;;;;;11.31;100.00;100328.05;88161;275;23650;-80
2024/03/30 06:32:47;;;;;;;3.90;3.60;;;;;;;11.20;100.00;100330.13;87950;273;136788;-76
2024/03/30 06:34:48;;;;;;;4.40;4.00;;;;;;;11.11;100.00;100330.67;87812;268;24074;-77
2024/03/30 06:36:49;;;;;;;4.70;4.20;;;;;;;11.04;100.00;100331.19;87749;268;137035;-72
2024/03/30 06:38:49;;;;;;;4.30;4.00;;;;;;;10.95;100.00;100335.19;87329;272;22698;-80
2024/03/30 06:45:29;;;;;;;5.70;4.10;;;;;;;10.70;100.00;100330.73;87432;267;137190;-81
2024/03/30 06:47:29;;;;;;;4.80;4.10;;;;;;;10.67;100.00;100330.28;87893;271;22522;-80
2024/03/30 06:49:30;;;;;;;4.70;4.30;;;;;;;10.62;100.00;100326.92;87996;270;136911;-80
2024/03/30 06:51:31;;;;;;;4.60;4.20;;;;;;;10.60;100.00;100321.27;87583;274;22567;-84
2024/03/30 06:53:31;;;;;;;4.50;4.10;;;;;;;10.64;100.00;100321.41;87454;268;137278;-82
2024/03/30 06:55:32;;;;;;;4.30;4.00;;;;;;;10.66;100.00;100319.44;87254;277;22636;-80
2024/03/30 06:57:33;;;;;;;4.70;3.10;;;;;;;10.71;100.00;100318.42;87197;274;136953;-79
2024/03/30 06:59:34;;;;;;;3.70;3.40;;;;;;;10.77;100.00;100315.34;87511;271;24221;-84
2024/03/30 07:01:35;;;;;;;3.90;3.50;;;;;;;10.87;100.00;100314.25;87171;268;136559;-83
2024/03/30 07:03:36;;;;;;;4.00;3.70;;;;;;;10.99;100.00;100312.80;87263;271;23329;-80
2024/03/30 07:05:36;;;;;;;3.50;3.20;;;;;;;11.12;100.00;100308.21;87470;271;136513;-81
2024/03/30 07:07:37;;;;;;;4.80;4.20;;;;;;;11.26;100.00;100308.59;87820;270;23962;-85
2024/03/30 07:09:38;;;;;;;6.80;3.90;;;;;;;11.41;100.00;100308.25;87471;280;136758;-83
2024/03/30 07:11:38;;;;;;;4.60;4.20;;;;;;;11.54;100.00;100304.14;87530;271;22571;-80
2024/03/30 07:13:41;;;;;;;3.50;3.20;;;;;;;11.67;100.00;100300.29;87423;270;136837;-80
2024/03/30 07:15:41;;;;;;;8.40;3.20;;;;;;;11.81;100.00;100304.27;87470;268;23935;-79
2024/03/30 07:17:42;;;;;;;5.70;3.90;;;;;;;11.96;100.00;100301.50;87209;275;137061;-85
2024/03/30 07:19:43;;;;;;;5.90;2.80;;;;;;;12.10;100.00;100300.79;87590;279;22539;-84
2024/03/30 07:21:43;;;;;;;3.80;3.50;;;;;;;12.19;100.00;100298.48;87646;263;137756;-82
2024/03/30 07:23:45;;;;;;;3.40;2.80;;;;;;;12.32;100.00;100299.01;88225;266;23784;-80
2024/03/30 07:25:47;;;;;;;2.90;2.70;;;;;;;12.45;100.00;100296.66;88827;270;137702;-86
2024/03/30 07:27:47;;;;;;;4.50;2.50;;;;;;;12.63;100.00;100291.53;89234;266;22569;-84
2024/03/30 07:29:50;;;;;;;2.00;1.90;;;;;;;12.77;100.00;100288.92;88623;268;136746;-82
2024/03/30 07:31:51;;;;;;;2.40;1.90;;;;;;;12.87;100.00;100284.20;87718;277;25082;-79
2024/03/30 07:33:51;;;;;;;1.90;1.80;;;;;;;12.98;100.00;100291.28;88006;268;136455;-81
2024/03/30 07:35:56;;;;;;;2.60;1.60;;;;;;;13.12;100.00;100292.33;87918;279;25225;-76
2024/03/30 07:37:57;;;;;;;3.50;1.40;;;;;;;13.26;100.00;100290.83;87387;273;136921;-79
2024/03/30 07:39:58;;;;;;;1.50;1.40;;;;;;;13.30;100.00;100291.83;87449;281;26306;-77
2024/03/30 07:41:58;;;;;;;1.60;1.50;;;;;;;13.28;100.00;100287.63;87431;272;136942;-79
2024/03/30 07:43:59;;;;;;;1.90;1.50;;;;;;;13.28;100.00;100288.60;87536;278;22582;-69
2024/03/30 07:46:01;;;;;;;1.50;1.40;;;;;;;13.27;100.00;100286.14;89173;273;136985;-72
2024/03/30 07:48:02;;;;;;;2.30;1.80;;;;;;;13.28;100.00;100279.13;87380;279;22562;-73
2024/03/30 07:50:05;;;;;;;2.30;2.00;;;;;;;13.31;100.00;100280.67;87659;273;22655;-72
2024/03/30 07:52:05;;;;;;;1.90;1.10;;;;;;;13.34;100.00;100279.30;87442;268;136579;-72
2024/03/30 07:54:07;;;;;;;1.70;1.60;;;;;;;13.40;100.00;100281.61;87046;271;24378;-71
2024/03/30 07:56:07;;;;;;;1.90;1.80;;;;;;;13.45;100.00;100279.10;86938;271;136990;-71
2024/03/30 07:58:08;;;;;;;2.00;1.40;;;;;;;13.51;100.00;100277.92;87042;276;25134;-76
2024/03/30 08:00:09;;;;;;;0.90;0.80;;;;;;;13.57;100.00;100273.71;86822;274;137095;-73
2024/03/30 08:02:10;;;;;;;4.00;1.00;;;;;;;13.62;100.00;100275.77;88702;268;22651;-74
2024/03/30 08:04:11;;;;;;;1.70;1.60;;;;;;;13.68;100.00;100273.11;86901;268;136716;-73
2024/03/30 08:06:12;;;;;;;1.30;1.20;;;;;;;13.75;100.00;100270.86;86904;279;24005;-73
2024/03/30 08:08:12;;;;;;;3.10;1.30;;;;;;;13.85;100.00;100272.31;86833;271;136887;-72
2024/03/30 08:10:13;;;;;;;1.50;1.40;;;;;;;13.95;100.00;100264.99;86964;275;25341;-70
2024/03/30 08:12:13;;;;;;;2.10;0.90;;;;;;;14.09;100.00;100265.38;86885;279;138007;-69
2024/03/30 08:14:19;;;;;;;2.70;0.90;;;;;;;14.25;100.00;100266.95;86944;271;22807;-70
2024/03/30 08:16:20;;;;;;;1.40;1.20;;;;;;;14.38;100.00;100262.77;86809;272;137407;-71
2024/03/30 08:18:21;;;;;;;1.60;0.90;;;;;;;14.47;100.00;100265.22;87031;268;22717;-69
2024/03/30 08:20:21;;;;;;;2.60;1.10;;;;;;;14.49;100.00;100264.75;86916;268;137078;-72
2024/03/30 08:22:22;;;;;;;2.00;1.30;;;;;;;14.49;100.00;100257.82;86976;280;24225;-70
2024/03/30 08:24:23;;;;;;;0.80;0.80;;;;;;;14.50;100.00;100262.73;86966;279;136192;-70
2024/03/30 08:26:24;;;;;;;6.10;1.20;;;;;;;14.51;100.00;100260.62;87128;270;22563;-70
2024/03/30 08:28:24;;;;;;;3.00;0.70;;;;;;;14.51;100.00;100261.11;86936;263;136557;-71
2024/03/30 08:30:26;;;;;;;1.20;0.90;;;;;;;14.54;100.00;100256.19;86936;272;22559;-69
2024/03/30 08:32:27;;;;;;;1.80;0.90;;;;;;;14.64;100.00;100259.91;87045;284;136949;-71
2024/03/30 08:34:28;;;;;;;3.40;0.60;;;;;;;14.70;100.00;100254.73;86950;272;22983;-70
2024/03/30 08:36:29;;;;;;;0.50;0.40;;;;;;;14.72;100.00;100254.60;86639;271;136637;-69
2024/03/30 08:38:29;;;;;;;1.90;0.50;;;;;;;14.73;100.00;100245.14;86861;278;22545;-70
2024/03/30 08:40:32;;;;;;;2.20;0.60;;;;;;;14.78;100.00;100241.94;86892;276;136796;-65
2024/03/30 08:42:32;;;;;;;0.80;0.30;;;;;;;14.88;100.00;100239.83;87010;272;22567;-71
2024/03/30 08:44:33;;;;;;;1.70;0.60;;;;;;;15.00;100.00;100240.69;86868;272;136626;-72
2024/03/30 08:46:34;;;;;;;5.30;0.50;;;;;;;15.07;100.00;100241.23;87078;268;24011;-70
2024/03/30 08:48:35;;;;;;;1.40;0.40;;;;;;;15.16;100.00;100235.09;86912;279;136791;-69
2024/03/30 08:50:36;;;;;;;1.00;0.50;;;;;;;15.26;100.00;100228.09;86905;276;25197;-70
2024/03/30 08:52:38;;;;;;;0.40;0.40;;;;;;;15.35;100.00;100233.13;86906;275;136258;-73
2024/03/30 08:54:38;;;;;;;1.50;0.30;;;;;;;15.44;100.00;100229.57;87112;274;23888;-73
2024/03/30 08:56:39;;;;;;;0.60;0.30;;;;;;;15.54;99.65;100227.27;86814;276;136702;-69
2024/03/30 08:58:40;;;;;;;0.90;0.20;;;;;;;15.64;99.61;100230.33;86893;279;25219;-73
2024/03/30 09:00:40;;;;;;;1.50;0.20;;;;;;;15.66;97.71;100226.35;86921;271;136117;-69
2024/03/30 09:02:42;;;;;;;8.00;0.40;;;;;;;15.70;97.44;100219.48;86981;272;25215;-68
2024/03/30 09:04:43;;;;;;;0.60;0.20;;;;;;;15.73;97.87;100223.84;86953;270;136138;-70
2024/03/30 09:06:44;;;;;;;1.10;0.20;;;;;;;15.75;97.80;100220.27;87077;270;23770;-68
2024/03/30 09:08:45;;;;;;;0.50;0.20;;;;;;;15.79;97.14;100222.63;86854;272;135885;-69
2024/03/30 09:10:46;;;;;;;0.30;0.30;;;;;;;15.86;96.69;100225.06;86965;268;22563;-73
2024/03/30 09:12:47;;;;;;;0.70;0.40;;;;;;;15.93;96.29;100218.27;86887;276;136074;-71
2024/03/30 09:14:48;;;;;;;0.70;0.30;;;;;;;16.04;95.65;100219.33;87023;279;25245;-72
2024/03/30 09:16:49;;;;;;;0.80;0.30;;;;;;;16.17;95.16;100220.22;86858;273;136711;-68
2024/03/30 09:18:49;;;;;;;0.90;0.30;;;;;;;16.32;93.96;100217.13;87086;272;22558;-67
2024/03/30 09:20:50;;;;;;;1.70;0.40;;;;;;;16.43;92.50;100217.41;86851;272;135743;-70
2024/03/30 09:22:51;;;;;;;2.30;0.30;;;;;;;16.57;91.44;100212.16;87015;271;24107;-68